Tekirdag, Turkey
Current Conditions -  °F | °C
As of 8:20 AM on Friday 28 Nov 2014 (Local Time) from LTBU Reporting Station
Broken Clouds Broken Clouds  
Wind Chill: 35°   Ceiling: 3500
Heat Index: 39°   Visibility: 6mi
Dew Point: 37°   Wind: 6mph
Humidity: 93%   Direction: 20°NNE
Pressure: 30.24"   Gusts: NA
Location:  40.98°N, 27.52°E
Report Text: LTBU 280520Z 02005KT 9999 BKN035 04/03 Q1024
Loading
Personal Weather Stations






























Interactive Weather Map New forecast layout! Learn more

10-Day Weather Forecast

Advertisements
Track Severe Weather on mobile